sensor_id;sensor_type;location;lat;lon;timestamp;P1;durP1;ratioP1;P2;durP2;ratioP2
42430;SDS011;71905;47.466;19.024;2024-03-17T00:00:25;2.20;;;0.98;;
42430;SDS011;71905;47.466;19.024;2024-03-17T00:02:52;2.08;;;1.10;;
42430;SDS011;71905;47.466;19.024;2024-03-17T00:05:18;2.33;;;1.20;;
42430;SDS011;71905;47.466;19.024;2024-03-17T00:07:47;3.80;;;1.17;;
42430;SDS011;71905;47.466;19.024;2024-03-17T00:10:14;3.30;;;1.10;;
42430;SDS011;71905;47.466;19.024;2024-03-17T00:12:41;1.80;;;1.00;;
42430;SDS011;71905;47.466;19.024;2024-03-17T00:15:08;2.10;;;1.15;;
42430;SDS011;71905;47.466;19.024;2024-03-17T00:17:36;4.32;;;1.27;;
42430;SDS011;71905;47.466;19.024;2024-03-17T00:20:02;2.17;;;1.05;;
42430;SDS011;71905;47.466;19.024;2024-03-17T00:22:34;2.50;;;0.90;;
42430;SDS011;71905;47.466;19.024;2024-03-17T00:25:04;2.55;;;1.00;;
42430;SDS011;71905;47.466;19.024;2024-03-17T00:27:32;2.08;;;0.93;;
42430;SDS011;71905;47.466;19.024;2024-03-17T00:29:58;2.22;;;0.90;;
42430;SDS011;71905;47.466;19.024;2024-03-17T00:32:25;1.52;;;0.90;;
42430;SDS011;71905;47.466;19.024;2024-03-17T00:34:51;1.85;;;0.88;;
42430;SDS011;71905;47.466;19.024;2024-03-17T00:37:18;2.40;;;1.00;;
42430;SDS011;71905;47.466;19.024;2024-03-17T00:39:44;2.50;;;0.90;;
42430;SDS011;71905;47.466;19.024;2024-03-17T00:42:13;2.50;;;1.00;;
42430;SDS011;71905;47.466;19.024;2024-03-17T00:44:39;1.90;;;1.13;;
42430;SDS011;71905;47.466;19.024;2024-03-17T00:47:07;1.80;;;1.05;;
42430;SDS011;71905;47.466;19.024;2024-03-17T00:49:34;2.33;;;1.10;;
42430;SDS011;71905;47.466;19.024;2024-03-17T00:52:01;1.73;;;1.20;;
42430;SDS011;71905;47.466;19.024;2024-03-17T00:54:27;2.17;;;1.20;;
42430;SDS011;71905;47.466;19.024;2024-03-17T00:56:54;2.00;;;1.10;;
42430;SDS011;71905;47.466;19.024;2024-03-17T00:59:21;2.58;;;1.23;;
42430;SDS011;71905;47.466;19.024;2024-03-17T01:01:49;2.40;;;1.35;;
42430;SDS011;71905;47.466;19.024;2024-03-17T01:04:15;2.25;;;1.50;;
42430;SDS011;71905;47.466;19.024;2024-03-17T01:06:42;3.35;;;1.45;;
42430;SDS011;71905;47.466;19.024;2024-03-17T01:09:08;2.55;;;1.63;;
42430;SDS011;71905;47.466;19.024;2024-03-17T01:11:35;2.60;;;1.30;;
42430;SDS011;71905;47.466;19.024;2024-03-17T01:14:01;1.83;;;1.30;;
42430;SDS011;71905;47.466;19.024;2024-03-17T01:16:29;2.65;;;1.60;;
42430;SDS011;71905;47.466;19.024;2024-03-17T01:18:56;3.00;;;1.60;;
42430;SDS011;71905;47.466;19.024;2024-03-17T01:21:22;2.30;;;1.40;;
42430;SDS011;71905;47.466;19.024;2024-03-17T01:23:50;3.20;;;1.55;;
42430;SDS011;71905;47.466;19.024;2024-03-17T01:26:16;2.42;;;1.50;;
42430;SDS011;71905;47.466;19.024;2024-03-17T01:28:43;2.92;;;1.67;;
42430;SDS011;71905;47.466;19.024;2024-03-17T01:31:09;3.25;;;1.50;;
42430;SDS011;71905;47.466;19.024;2024-03-17T01:33:37;3.28;;;1.80;;
42430;SDS011;71905;47.466;19.024;2024-03-17T01:36:05;3.17;;;1.88;;
42430;SDS011;71905;47.466;19.024;2024-03-17T01:38:32;2.78;;;1.50;;
42430;SDS011;71905;47.466;19.024;2024-03-17T01:40:59;4.43;;;1.83;;
42430;SDS011;71905;47.466;19.024;2024-03-17T01:43:26;4.13;;;1.70;;
42430;SDS011;71905;47.466;19.024;2024-03-17T01:45:52;3.25;;;1.92;;
42430;SDS011;71905;47.466;19.024;2024-03-17T01:48:19;3.47;;;1.98;;
42430;SDS011;71905;47.466;19.024;2024-03-17T01:50:48;3.80;;;1.98;;
42430;SDS011;71905;47.466;19.024;2024-03-17T01:53:18;2.40;;;1.80;;
42430;SDS011;71905;47.466;19.024;2024-03-17T01:55:47;4.70;;;1.70;;
42430;SDS011;71905;47.466;19.024;2024-03-17T01:58:14;2.53;;;1.58;;
42430;SDS011;71905;47.466;19.024;2024-03-17T02:00:40;3.35;;;2.08;;
42430;SDS011;71905;47.466;19.024;2024-03-17T02:03:08;2.63;;;1.67;;
42430;SDS011;71905;47.466;19.024;2024-03-17T02:05:35;3.25;;;2.00;;
42430;SDS011;71905;47.466;19.024;2024-03-17T02:08:04;3.38;;;2.08;;
42430;SDS011;71905;47.466;19.024;2024-03-17T02:10:31;2.80;;;2.00;;
42430;SDS011;71905;47.466;19.024;2024-03-17T02:12:58;3.50;;;2.00;;
42430;SDS011;71905;47.466;19.024;2024-03-17T02:15:25;2.72;;;2.00;;
42430;SDS011;71905;47.466;19.024;2024-03-17T02:17:52;2.58;;;1.83;;
42430;SDS011;71905;47.466;19.024;2024-03-17T02:20:18;2.90;;;2.15;;
42430;SDS011;71905;47.466;19.024;2024-03-17T02:22:46;3.10;;;2.10;;
42430;SDS011;71905;47.466;19.024;2024-03-17T02:25:12;5.43;;;2.55;;
42430;SDS011;71905;47.466;19.024;2024-03-17T02:27:39;3.13;;;2.35;;
42430;SDS011;71905;47.466;19.024;2024-03-17T02:30:06;3.83;;;2.22;;
42430;SDS011;71905;47.466;19.024;2024-03-17T02:32:34;3.28;;;2.20;;
42430;SDS011;71905;47.466;19.024;2024-03-17T02:35:00;3.53;;;2.25;;
42430;SDS011;71905;47.466;19.024;2024-03-17T02:37:27;3.17;;;2.08;;
42430;SDS011;71905;47.466;19.024;2024-03-17T02:39:56;3.20;;;2.55;;
42430;SDS011;71905;47.466;19.024;2024-03-17T02:42:22;3.08;;;2.15;;
42430;SDS011;71905;47.466;19.024;2024-03-17T02:44:49;3.70;;;2.25;;
42430;SDS011;71905;47.466;19.024;2024-03-17T02:47:16;3.35;;;2.20;;
42430;SDS011;71905;47.466;19.024;2024-03-17T02:49:43;3.30;;;2.40;;
42430;SDS011;71905;47.466;19.024;2024-03-17T02:52:15;3.25;;;2.05;;
42430;SDS011;71905;47.466;19.024;2024-03-17T02:54:42;3.47;;;2.53;;
42430;SDS011;71905;47.466;19.024;2024-03-17T02:57:10;3.65;;;2.35;;
42430;SDS011;71905;47.466;19.024;2024-03-17T02:59:37;3.28;;;2.25;;
42430;SDS011;71905;47.466;19.024;2024-03-17T03:02:05;3.42;;;2.10;;
42430;SDS011;71905;47.466;19.024;2024-03-17T03:04:32;2.92;;;2.08;;
42430;SDS011;71905;47.466;19.024;2024-03-17T03:06:59;3.83;;;2.35;;
42430;SDS011;71905;47.466;19.024;2024-03-17T03:09:26;2.92;;;2.03;;
42430;SDS011;71905;47.466;19.024;2024-03-17T03:11:57;3.88;;;2.08;;
42430;SDS011;71905;47.466;19.024;2024-03-17T03:14:25;3.22;;;1.73;;
42430;SDS011;71905;47.466;19.024;2024-03-17T03:16:53;4.35;;;1.80;;
42430;SDS011;71905;47.466;19.024;2024-03-17T03:19:20;2.70;;;1.70;;
42430;SDS011;71905;47.466;19.024;2024-03-17T03:21:47;2.65;;;1.70;;
42430;SDS011;71905;47.466;19.024;2024-03-17T03:24:14;3.20;;;1.48;;
42430;SDS011;71905;47.466;19.024;2024-03-17T03:26:42;2.88;;;1.60;;
42430;SDS011;71905;47.466;19.024;2024-03-17T03:29:10;2.28;;;1.58;;
42430;SDS011;71905;47.466;19.024;2024-03-17T03:31:41;2.25;;;1.70;;
42430;SDS011;71905;47.466;19.024;2024-03-17T03:34:08;3.08;;;1.80;;
42430;SDS011;71905;47.466;19.024;2024-03-17T03:36:35;2.63;;;1.60;;
42430;SDS011;71905;47.466;19.024;2024-03-17T03:39:02;2.60;;;1.63;;
42430;SDS011;71905;47.466;19.024;2024-03-17T03:41:31;4.38;;;1.80;;
42430;SDS011;71905;47.466;19.024;2024-03-17T03:43:58;2.60;;;1.75;;
42430;SDS011;71905;47.466;19.024;2024-03-17T03:46:26;2.22;;;1.67;;
42430;SDS011;71905;47.466;19.024;2024-03-17T03:48:54;3.13;;;2.10;;
42430;SDS011;71905;47.466;19.024;2024-03-17T03:51:21;3.72;;;1.90;;
42430;SDS011;71905;47.466;19.024;2024-03-17T03:53:50;3.58;;;2.17;;
42430;SDS011;71905;47.466;19.024;2024-03-17T03:56:17;3.63;;;2.45;;
42430;SDS011;71905;47.466;19.024;2024-03-17T03:58:43;3.00;;;2.30;;
42430;SDS011;71905;47.466;19.024;2024-03-17T04:01:11;3.65;;;2.10;;
42430;SDS011;71905;47.466;19.024;2024-03-17T04:03:41;3.67;;;2.10;;
42430;SDS011;71905;47.466;19.024;2024-03-17T04:06:10;3.60;;;2.50;;
42430;SDS011;71905;47.466;19.024;2024-03-17T04:08:41;3.42;;;2.47;;
42430;SDS011;71905;47.466;19.024;2024-03-17T04:11:09;3.92;;;2.60;;
42430;SDS011;71905;47.466;19.024;2024-03-17T04:13:36;3.72;;;2.28;;
42430;SDS011;71905;47.466;19.024;2024-03-17T04:16:04;3.75;;;2.40;;
42430;SDS011;71905;47.466;19.024;2024-03-17T04:18:32;5.07;;;2.20;;
42430;SDS011;71905;47.466;19.024;2024-03-17T04:21:01;3.20;;;2.30;;
42430;SDS011;71905;47.466;19.024;2024-03-17T04:23:30;3.05;;;2.50;;
42430;SDS011;71905;47.466;19.024;2024-03-17T04:25:57;3.42;;;2.47;;
42430;SDS011;71905;47.466;19.024;2024-03-17T04:28:25;3.35;;;2.08;;
42430;SDS011;71905;47.466;19.024;2024-03-17T04:30:52;4.13;;;2.40;;
42430;SDS011;71905;47.466;19.024;2024-03-17T04:33:30;3.28;;;2.45;;
42430;SDS011;71905;47.466;19.024;2024-03-17T04:35:57;4.88;;;2.42;;
42430;SDS011;71905;47.466;19.024;2024-03-17T04:38:24;3.03;;;2.20;;
42430;SDS011;71905;47.466;19.024;2024-03-17T04:40:53;4.32;;;2.70;;
42430;SDS011;71905;47.466;19.024;2024-03-17T04:43:29;3.30;;;2.40;;
42430;SDS011;71905;47.466;19.024;2024-03-17T04:46:01;2.70;;;2.05;;
42430;SDS011;71905;47.466;19.024;2024-03-17T04:48:31;3.35;;;2.47;;
42430;SDS011;71905;47.466;19.024;2024-03-17T04:50:58;3.83;;;2.67;;
42430;SDS011;71905;47.466;19.024;2024-03-17T04:53:25;3.72;;;2.80;;
42430;SDS011;71905;47.466;19.024;2024-03-17T04:56:02;3.80;;;2.88;;
42430;SDS011;71905;47.466;19.024;2024-03-17T04:58:31;3.30;;;2.15;;
42430;SDS011;71905;47.466;19.024;2024-03-17T05:01:02;5.15;;;2.72;;
42430;SDS011;71905;47.466;19.024;2024-03-17T05:03:32;3.45;;;2.50;;
42430;SDS011;71905;47.466;19.024;2024-03-17T05:05:59;3.65;;;2.42;;
42430;SDS011;71905;47.466;19.024;2024-03-17T05:08:27;7.07;;;3.53;;
42430;SDS011;71905;47.466;19.024;2024-03-17T05:10:58;4.00;;;2.78;;
42430;SDS011;71905;47.466;19.024;2024-03-17T05:13:27;4.95;;;3.00;;
42430;SDS011;71905;47.466;19.024;2024-03-17T05:15:54;4.57;;;2.88;;
42430;SDS011;71905;47.466;19.024;2024-03-17T05:18:22;4.53;;;3.00;;
42430;SDS011;71905;47.466;19.024;2024-03-17T05:20:57;3.60;;;2.85;;
42430;SDS011;71905;47.466;19.024;2024-03-17T05:23:26;4.57;;;2.80;;
42430;SDS011;71905;47.466;19.024;2024-03-17T05:25:54;3.90;;;2.65;;
42430;SDS011;71905;47.466;19.024;2024-03-17T05:28:22;4.25;;;2.60;;
42430;SDS011;71905;47.466;19.024;2024-03-17T05:30:51;4.72;;;2.80;;
42430;SDS011;71905;47.466;19.024;2024-03-17T05:33:18;4.20;;;2.80;;
42430;SDS011;71905;47.466;19.024;2024-03-17T05:35:50;4.38;;;2.50;;
42430;SDS011;71905;47.466;19.024;2024-03-17T05:38:18;4.00;;;2.50;;
42430;SDS011;71905;47.466;19.024;2024-03-17T05:40:52;4.47;;;2.60;;
42430;SDS011;71905;47.466;19.024;2024-03-17T05:43:20;3.22;;;2.20;;
42430;SDS011;71905;47.466;19.024;2024-03-17T05:45:47;3.97;;;2.33;;
42430;SDS011;71905;47.466;19.024;2024-03-17T05:48:16;3.22;;;2.10;;
42430;SDS011;71905;47.466;19.024;2024-03-17T05:50:43;5.60;;;2.58;;
42430;SDS011;71905;47.466;19.024;2024-03-17T05:53:11;3.80;;;2.30;;
42430;SDS011;71905;47.466;19.024;2024-03-17T05:55:38;3.60;;;2.40;;
42430;SDS011;71905;47.466;19.024;2024-03-17T05:58:06;5.47;;;2.30;;
42430;SDS011;71905;47.466;19.024;2024-03-17T06:00:34;3.55;;;2.30;;
42430;SDS011;71905;47.466;19.024;2024-03-17T06:03:02;4.95;;;2.40;;
42430;SDS011;71905;47.466;19.024;2024-03-17T06:05:32;4.22;;;2.30;;
42430;SDS011;71905;47.466;19.024;2024-03-17T06:07:59;5.65;;;2.47;;
42430;SDS011;71905;47.466;19.024;2024-03-17T06:10:28;4.20;;;2.38;;
42430;SDS011;71905;47.466;19.024;2024-03-17T06:12:55;4.63;;;2.90;;
42430;SDS011;71905;47.466;19.024;2024-03-17T06:15:23;3.78;;;2.40;;
42430;SDS011;71905;47.466;19.024;2024-03-17T06:17:50;4.68;;;2.28;;
42430;SDS011;71905;47.466;19.024;2024-03-17T06:20:18;3.38;;;1.90;;
42430;SDS011;71905;47.466;19.024;2024-03-17T06:22:47;4.30;;;2.17;;
42430;SDS011;71905;47.466;19.024;2024-03-17T06:25:14;3.97;;;2.00;;
42430;SDS011;71905;47.466;19.024;2024-03-17T06:27:42;3.45;;;1.75;;
42430;SDS011;71905;47.466;19.024;2024-03-17T06:30:10;4.65;;;2.10;;
42430;SDS011;71905;47.466;19.024;2024-03-17T06:32:39;2.75;;;1.92;;
42430;SDS011;71905;47.466;19.024;2024-03-17T06:35:07;4.00;;;2.03;;
42430;SDS011;71905;47.466;19.024;2024-03-17T06:37:35;3.50;;;1.73;;
42430;SDS011;71905;47.466;19.024;2024-03-17T06:40:03;4.57;;;1.92;;
42430;SDS011;71905;47.466;19.024;2024-03-17T06:42:32;3.38;;;1.83;;
42430;SDS011;71905;47.466;19.024;2024-03-17T06:44:59;2.92;;;1.55;;
42430;SDS011;71905;47.466;19.024;2024-03-17T06:47:26;3.05;;;2.00;;
42430;SDS011;71905;47.466;19.024;2024-03-17T06:49:53;3.65;;;1.80;;
42430;SDS011;71905;47.466;19.024;2024-03-17T06:52:21;4.15;;;1.65;;
42430;SDS011;71905;47.466;19.024;2024-03-17T06:54:48;2.70;;;1.50;;
42430;SDS011;71905;47.466;19.024;2024-03-17T06:57:17;2.92;;;1.70;;
42430;SDS011;71905;47.466;19.024;2024-03-17T06:59:44;4.72;;;2.20;;
42430;SDS011;71905;47.466;19.024;2024-03-17T07:02:13;3.75;;;1.95;;
42430;SDS011;71905;47.466;19.024;2024-03-17T07:04:43;4.32;;;1.90;;
42430;SDS011;71905;47.466;19.024;2024-03-17T07:07:10;4.13;;;2.08;;
42430;SDS011;71905;47.466;19.024;2024-03-17T07:09:38;5.05;;;2.00;;
42430;SDS011;71905;47.466;19.024;2024-03-17T07:12:06;3.42;;;1.70;;
42430;SDS011;71905;47.466;19.024;2024-03-17T07:14:35;3.92;;;1.70;;
42430;SDS011;71905;47.466;19.024;2024-03-17T07:17:02;5.47;;;2.13;;
42430;SDS011;71905;47.466;19.024;2024-03-17T07:19:30;3.88;;;1.83;;
42430;SDS011;71905;47.466;19.024;2024-03-17T07:21:58;3.75;;;1.70;;
42430;SDS011;71905;47.466;19.024;2024-03-17T07:24:25;5.18;;;1.80;;
42430;SDS011;71905;47.466;19.024;2024-03-17T07:26:53;4.93;;;1.80;;
42430;SDS011;71905;47.466;19.024;2024-03-17T07:29:20;3.58;;;1.80;;
42430;SDS011;71905;47.466;19.024;2024-03-17T07:31:48;3.22;;;1.58;;
42430;SDS011;71905;47.466;19.024;2024-03-17T07:34:15;5.80;;;2.20;;
42430;SDS011;71905;47.466;19.024;2024-03-17T07:36:42;3.85;;;1.70;;
42430;SDS011;71905;47.466;19.024;2024-03-17T07:39:10;4.07;;;2.00;;
42430;SDS011;71905;47.466;19.024;2024-03-17T07:41:37;4.00;;;1.77;;
42430;SDS011;71905;47.466;19.024;2024-03-17T07:44:04;3.60;;;1.98;;
42430;SDS011;71905;47.466;19.024;2024-03-17T07:46:31;4.82;;;2.25;;
42430;SDS011;71905;47.466;19.024;2024-03-17T07:49:00;3.65;;;1.90;;
42430;SDS011;71905;47.466;19.024;2024-03-17T07:51:27;3.78;;;1.70;;
42430;SDS011;71905;47.466;19.024;2024-03-17T07:53:54;4.28;;;1.70;;
42430;SDS011;71905;47.466;19.024;2024-03-17T07:56:21;5.03;;;2.30;;
42430;SDS011;71905;47.466;19.024;2024-03-17T07:58:49;4.43;;;1.80;;
42430;SDS011;71905;47.466;19.024;2024-03-17T08:01:16;4.95;;;2.05;;
42430;SDS011;71905;47.466;19.024;2024-03-17T08:03:44;3.55;;;1.88;;
42430;SDS011;71905;47.466;19.024;2024-03-17T08:06:16;4.32;;;1.90;;
42430;SDS011;71905;47.466;19.024;2024-03-17T08:08:43;7.72;;;2.08;;
42430;SDS011;71905;47.466;19.024;2024-03-17T08:11:10;5.50;;;1.88;;
42430;SDS011;71905;47.466;19.024;2024-03-17T08:13:37;3.65;;;1.90;;
42430;SDS011;71905;47.466;19.024;2024-03-17T08:16:05;3.50;;;1.58;;
42430;SDS011;71905;47.466;19.024;2024-03-17T08:18:35;3.75;;;1.90;;
42430;SDS011;71905;47.466;19.024;2024-03-17T08:21:02;4.30;;;1.55;;
42430;SDS011;71905;47.466;19.024;2024-03-17T08:23:33;4.88;;;1.60;;
42430;SDS011;71905;47.466;19.024;2024-03-17T08:26:01;4.03;;;1.70;;
42430;SDS011;71905;47.466;19.024;2024-03-17T08:28:28;3.63;;;1.55;;
42430;SDS011;71905;47.466;19.024;2024-03-17T08:30:56;4.45;;;1.88;;
42430;SDS011;71905;47.466;19.024;2024-03-17T08:33:24;4.43;;;1.45;;
42430;SDS011;71905;47.466;19.024;2024-03-17T08:35:58;3.70;;;1.58;;
42430;SDS011;71905;47.466;19.024;2024-03-17T08:38:26;3.50;;;1.60;;
42430;SDS011;71905;47.466;19.024;2024-03-17T08:40:56;4.13;;;1.60;;
42430;SDS011;71905;47.466;19.024;2024-03-17T08:43:23;4.72;;;1.30;;
42430;SDS011;71905;47.466;19.024;2024-03-17T08:45:54;3.60;;;1.77;;
42430;SDS011;71905;47.466;19.024;2024-03-17T08:48:24;4.63;;;1.53;;
42430;SDS011;71905;47.466;19.024;2024-03-17T08:50:52;3.38;;;1.60;;
42430;SDS011;71905;47.466;19.024;2024-03-17T08:53:20;3.17;;;1.40;;
42430;SDS011;71905;47.466;19.024;2024-03-17T08:55:47;4.25;;;1.70;;
42430;SDS011;71905;47.466;19.024;2024-03-17T08:58:16;4.57;;;1.60;;
42430;SDS011;71905;47.466;19.024;2024-03-17T09:00:44;4.85;;;1.38;;
42430;SDS011;71905;47.466;19.024;2024-03-17T09:03:11;3.75;;;1.40;;
42430;SDS011;71905;47.466;19.024;2024-03-17T09:05:39;3.20;;;1.20;;
42430;SDS011;71905;47.466;19.024;2024-03-17T09:08:07;3.00;;;1.20;;
42430;SDS011;71905;47.466;19.024;2024-03-17T09:10:38;3.85;;;1.20;;
42430;SDS011;71905;47.466;19.024;2024-03-17T09:13:06;3.90;;;1.02;;
42430;SDS011;71905;47.466;19.024;2024-03-17T09:15:34;3.63;;;1.00;;
42430;SDS011;71905;47.466;19.024;2024-03-17T09:18:01;3.85;;;1.33;;
42430;SDS011;71905;47.466;19.024;2024-03-17T09:20:28;4.97;;;1.40;;
42430;SDS011;71905;47.466;19.024;2024-03-17T09:22:56;2.85;;;1.30;;
42430;SDS011;71905;47.466;19.024;2024-03-17T09:25:24;11.20;;;2.08;;
42430;SDS011;71905;47.466;19.024;2024-03-17T09:27:51;9.85;;;1.52;;
42430;SDS011;71905;47.466;19.024;2024-03-17T09:30:18;4.97;;;1.33;;
42430;SDS011;71905;47.466;19.024;2024-03-17T09:32:46;3.90;;;1.33;;
42430;SDS011;71905;47.466;19.024;2024-03-17T09:35:14;4.00;;;1.30;;
42430;SDS011;71905;47.466;19.024;2024-03-17T09:37:41;10.63;;;1.88;;
42430;SDS011;71905;47.466;19.024;2024-03-17T09:40:09;10.18;;;1.88;;
42430;SDS011;71905;47.466;19.024;2024-03-17T09:42:41;6.20;;;1.73;;
42430;SDS011;71905;47.466;19.024;2024-03-17T09:45:09;6.05;;;1.38;;
42430;SDS011;71905;47.466;19.024;2024-03-17T09:47:41;4.35;;;1.00;;
42430;SDS011;71905;47.466;19.024;2024-03-17T09:50:12;3.42;;;1.20;;
42430;SDS011;71905;47.466;19.024;2024-03-17T09:52:42;3.22;;;1.35;;
42430;SDS011;71905;47.466;19.024;2024-03-17T09:55:13;7.70;;;1.33;;
42430;SDS011;71905;47.466;19.024;2024-03-17T09:57:42;4.93;;;1.17;;
42430;SDS011;71905;47.466;19.024;2024-03-17T10:00:10;4.93;;;1.38;;
42430;SDS011;71905;47.466;19.024;2024-03-17T10:02:43;3.85;;;1.60;;
42430;SDS011;71905;47.466;19.024;2024-03-17T10:05:22;4.75;;;1.30;;
42430;SDS011;71905;47.466;19.024;2024-03-17T10:07:50;5.93;;;1.30;;
42430;SDS011;71905;47.466;19.024;2024-03-17T10:10:20;7.75;;;1.30;;
42430;SDS011;71905;47.466;19.024;2024-03-17T10:12:49;4.43;;;1.60;;
42430;SDS011;71905;47.466;19.024;2024-03-17T10:15:17;3.47;;;1.33;;
42430;SDS011;71905;47.466;19.024;2024-03-17T10:17:45;4.10;;;1.02;;
42430;SDS011;71905;47.466;19.024;2024-03-17T10:20:13;4.38;;;1.30;;
42430;SDS011;71905;47.466;19.024;2024-03-17T10:23:02;4.75;;;1.60;;
42430;SDS011;71905;47.466;19.024;2024-03-17T10:25:31;3.50;;;1.27;;
42430;SDS011;71905;47.466;19.024;2024-03-17T10:28:00;4.40;;;1.30;;
42430;SDS011;71905;47.466;19.024;2024-03-17T10:30:27;4.32;;;1.35;;
42430;SDS011;71905;47.466;19.024;2024-03-17T10:32:56;3.83;;;1.23;;
42430;SDS011;71905;47.466;19.024;2024-03-17T10:35:29;4.07;;;1.42;;
42430;SDS011;71905;47.466;19.024;2024-03-17T10:37:57;2.50;;;1.10;;
42430;SDS011;71905;47.466;19.024;2024-03-17T10:40:27;4.90;;;1.33;;
42430;SDS011;71905;47.466;19.024;2024-03-17T10:42:59;3.92;;;1.10;;
42430;SDS011;71905;47.466;19.024;2024-03-17T10:45:27;8.93;;;1.60;;
42430;SDS011;71905;47.466;19.024;2024-03-17T10:47:59;4.93;;;1.73;;
42430;SDS011;71905;47.466;19.024;2024-03-17T10:50:29;3.13;;;1.20;;
42430;SDS011;71905;47.466;19.024;2024-03-17T10:53:00;5.70;;;1.58;;
42430;SDS011;71905;47.466;19.024;2024-03-17T10:55:32;3.58;;;1.27;;
42430;SDS011;71905;47.466;19.024;2024-03-17T10:58:13;3.28;;;1.30;;
42430;SDS011;71905;47.466;19.024;2024-03-17T11:00:50;9.32;;;4.18;;
42430;SDS011;71905;47.466;19.024;2024-03-17T11:03:18;8.90;;;2.10;;
42430;SDS011;71905;47.466;19.024;2024-03-17T11:05:58;4.75;;;1.80;;
42430;SDS011;71905;47.466;19.024;2024-03-17T11:08:29;4.72;;;1.50;;
42430;SDS011;71905;47.466;19.024;2024-03-17T11:11:02;3.88;;;1.38;;
42430;SDS011;71905;47.466;19.024;2024-03-17T11:13:29;5.40;;;2.15;;
42430;SDS011;71905;47.466;19.024;2024-03-17T11:15:57;4.15;;;1.65;;
42430;SDS011;71905;47.466;19.024;2024-03-17T11:18:29;5.22;;;1.60;;
42430;SDS011;71905;47.466;19.024;2024-03-17T11:21:02;5.05;;;1.65;;
42430;SDS011;71905;47.466;19.024;2024-03-17T11:23:36;3.08;;;1.50;;
42430;SDS011;71905;47.466;19.024;2024-03-17T11:26:06;4.40;;;1.73;;
42430;SDS011;71905;47.466;19.024;2024-03-17T11:28:44;3.92;;;1.65;;
42430;SDS011;71905;47.466;19.024;2024-03-17T11:37:39;4.53;;;1.73;;
42430;SDS011;71905;47.466;19.024;2024-03-17T11:40:23;4.47;;;1.58;;
42430;SDS011;71905;47.466;19.024;2024-03-17T11:43:01;4.78;;;1.50;;
42430;SDS011;71905;47.466;19.024;2024-03-17T11:45:28;5.80;;;2.58;;
42430;SDS011;71905;47.466;19.024;2024-03-17T11:47:54;4.47;;;2.00;;
42430;SDS011;71905;47.466;19.024;2024-03-17T11:50:22;5.68;;;1.80;;
42430;SDS011;71905;47.466;19.024;2024-03-17T11:52:57;3.70;;;1.60;;
42430;SDS011;71905;47.466;19.024;2024-03-17T11:55:24;4.25;;;1.70;;
42430;SDS011;71905;47.466;19.024;2024-03-17T11:57:55;4.97;;;1.35;;
42430;SDS011;71905;47.466;19.024;2024-03-17T12:00:24;6.15;;;1.50;;
42430;SDS011;71905;47.466;19.024;2024-03-17T12:02:51;3.13;;;1.30;;
42430;SDS011;71905;47.466;19.024;2024-03-17T12:05:18;3.33;;;1.30;;
42430;SDS011;71905;47.466;19.024;2024-03-17T12:07:46;3.00;;;1.27;;
42430;SDS011;71905;47.466;19.024;2024-03-17T12:10:13;4.80;;;1.52;;
42430;SDS011;71905;47.466;19.024;2024-03-17T12:12:40;4.07;;;1.40;;
42430;SDS011;71905;47.466;19.024;2024-03-17T12:15:17;4.47;;;1.50;;
42430;SDS011;71905;47.466;19.024;2024-03-17T12:17:46;3.80;;;1.20;;
42430;SDS011;71905;47.466;19.024;2024-03-17T12:20:19;3.22;;;1.00;;
42430;SDS011;71905;47.466;19.024;2024-03-17T12:22:46;5.82;;;1.40;;
42430;SDS011;71905;47.466;19.024;2024-03-17T12:25:16;5.85;;;1.55;;
42430;SDS011;71905;47.466;19.024;2024-03-17T12:27:43;4.05;;;1.40;;
42430;SDS011;71905;47.466;19.024;2024-03-17T12:30:12;3.08;;;1.13;;
42430;SDS011;71905;47.466;19.024;2024-03-17T12:32:38;3.78;;;1.25;;
42430;SDS011;71905;47.466;19.024;2024-03-17T12:35:12;3.67;;;1.20;;
42430;SDS011;71905;47.466;19.024;2024-03-17T12:37:43;6.00;;;1.13;;
42430;SDS011;71905;47.466;19.024;2024-03-17T12:40:20;3.83;;;1.40;;
42430;SDS011;71905;47.466;19.024;2024-03-17T12:42:49;3.95;;;1.50;;
42430;SDS011;71905;47.466;19.024;2024-03-17T12:45:20;4.22;;;1.05;;
42430;SDS011;71905;47.466;19.024;2024-03-17T12:47:48;3.60;;;1.30;;
42430;SDS011;71905;47.466;19.024;2024-03-17T12:50:17;2.03;;;0.90;;
42430;SDS011;71905;47.466;19.024;2024-03-17T12:52:51;4.45;;;1.50;;
42430;SDS011;71905;47.466;19.024;2024-03-17T12:55:23;3.95;;;1.10;;
42430;SDS011;71905;47.466;19.024;2024-03-17T12:58:09;3.83;;;1.25;;
42430;SDS011;71905;47.466;19.024;2024-03-17T13:00:57;3.83;;;1.30;;
42430;SDS011;71905;47.466;19.024;2024-03-17T13:03:26;4.22;;;1.30;;
42430;SDS011;71905;47.466;19.024;2024-03-17T13:05:58;2.45;;;1.00;;
42430;SDS011;71905;47.466;19.024;2024-03-17T13:08:25;4.55;;;1.00;;
42430;SDS011;71905;47.466;19.024;2024-03-17T13:10:52;4.13;;;0.90;;
42430;SDS011;71905;47.466;19.024;2024-03-17T13:13:20;3.65;;;1.20;;
42430;SDS011;71905;47.466;19.024;2024-03-17T13:15:47;8.27;;;3.53;;
42430;SDS011;71905;47.466;19.024;2024-03-17T13:18:16;4.15;;;0.98;;
42430;SDS011;71905;47.466;19.024;2024-03-17T13:20:45;2.38;;;0.90;;
42430;SDS011;71905;47.466;19.024;2024-03-17T13:23:14;3.58;;;1.20;;
42430;SDS011;71905;47.466;19.024;2024-03-17T13:25:41;3.38;;;1.10;;
42430;SDS011;71905;47.466;19.024;2024-03-17T13:28:10;3.75;;;1.13;;
42430;SDS011;71905;47.466;19.024;2024-03-17T13:30:38;3.50;;;1.42;;
42430;SDS011;71905;47.466;19.024;2024-03-17T13:33:05;2.58;;;1.00;;
42430;SDS011;71905;47.466;19.024;2024-03-17T13:35:36;3.35;;;1.08;;
42430;SDS011;71905;47.466;19.024;2024-03-17T13:38:04;4.40;;;1.40;;
42430;SDS011;71905;47.466;19.024;2024-03-17T13:40:33;4.53;;;2.92;;
42430;SDS011;71905;47.466;19.024;2024-03-17T13:43:01;3.15;;;1.15;;
42430;SDS011;71905;47.466;19.024;2024-03-17T13:45:30;5.80;;;1.10;;
42430;SDS011;71905;47.466;19.024;2024-03-17T13:48:04;6.00;;;1.38;;
42430;SDS011;71905;47.466;19.024;2024-03-17T13:50:34;3.40;;;1.33;;
42430;SDS011;71905;47.466;19.024;2024-03-17T13:53:01;4.35;;;1.33;;
42430;SDS011;71905;47.466;19.024;2024-03-17T13:55:28;3.70;;;1.30;;
42430;SDS011;71905;47.466;19.024;2024-03-17T13:57:57;5.35;;;1.65;;
42430;SDS011;71905;47.466;19.024;2024-03-17T14:00:25;3.80;;;1.30;;
42430;SDS011;71905;47.466;19.024;2024-03-17T14:02:54;3.70;;;1.40;;
42430;SDS011;71905;47.466;19.024;2024-03-17T14:05:23;3.13;;;1.10;;
42430;SDS011;71905;47.466;19.024;2024-03-17T14:07:51;3.67;;;1.23;;
42430;SDS011;71905;47.466;19.024;2024-03-17T14:10:19;3.78;;;1.17;;
42430;SDS011;71905;47.466;19.024;2024-03-17T14:12:49;4.22;;;1.67;;
42430;SDS011;71905;47.466;19.024;2024-03-17T14:15:17;2.85;;;1.40;;
42430;SDS011;71905;47.466;19.024;2024-03-17T14:17:45;4.30;;;1.58;;
42430;SDS011;71905;47.466;19.024;2024-03-17T14:20:14;3.58;;;1.50;;
42430;SDS011;71905;47.466;19.024;2024-03-17T14:22:43;4.00;;;1.40;;
42430;SDS011;71905;47.466;19.024;2024-03-17T14:25:14;4.18;;;1.30;;
42430;SDS011;71905;47.466;19.024;2024-03-17T14:27:42;3.30;;;1.20;;
42430;SDS011;71905;47.466;19.024;2024-03-17T14:30:10;5.70;;;1.60;;
42430;SDS011;71905;47.466;19.024;2024-03-17T14:32:43;4.18;;;1.60;;
42430;SDS011;71905;47.466;19.024;2024-03-17T14:35:12;3.85;;;1.17;;
42430;SDS011;71905;47.466;19.024;2024-03-17T14:37:40;4.07;;;1.33;;
42430;SDS011;71905;47.466;19.024;2024-03-17T14:40:08;5.30;;;1.10;;
42430;SDS011;71905;47.466;19.024;2024-03-17T14:42:42;5.47;;;1.60;;
42430;SDS011;71905;47.466;19.024;2024-03-17T14:45:09;4.40;;;1.17;;
42430;SDS011;71905;47.466;19.024;2024-03-17T14:47:40;3.97;;;1.40;;